Time;durP1;ratioP1;P1;durP2;ratioP2;P2;SDS_P1;SDS_P2;PMS_P1;PMS_P2;Temp;Humidity;BMP_temperature;BMP_pressure;BME280_temperature;BME280_humidity;BME280_pressure;Samples;Min_cycle;Max_cycle;Signal;HPM_P1;HPM_P2
2023/10/09 00:02:54;;;;;;;5.67;3.10;;;;;;;;;;5100886;28;20883;-70
2023/10/09 00:05:27;;;;;;;4.13;2.73;;;;;;;;;;5107254;28;20447;-69
2023/10/09 00:07:58;;;;;;;4.73;3.40;;;;;;;;;;5103965;28;20474;-70
2023/10/09 00:10:34;;;;;;;8.03;3.40;;;;;;;;;;5103116;28;20470;-70
2023/10/09 00:13:01;;;;;;;6.53;3.17;;;;;;;;;;5104240;28;20454;-71
2023/10/09 00:15:28;;;;;;;4.37;2.77;;;;;;;;;;5106132;28;20527;-71
2023/10/09 00:17:56;;;;;;;5.90;3.80;;;;;;;;;;5106405;28;20447;-71
2023/10/09 00:20:30;;;;;;;10.73;5.40;;;;;;;;;;5103056;28;20439;-71
2023/10/09 00:22:58;;;;;;;8.13;3.97;;;;;;;;;;5103251;28;20453;-71
2023/10/09 00:25:30;;;;;;;5.50;3.87;;;;;;;;;;5115327;28;20454;-71
2023/10/09 00:27:59;;;;;;;4.87;3.43;;;;;;;;;;5110789;28;20480;-71
2023/10/09 00:30:29;;;;;;;9.13;4.70;;;;;;;;;;5106376;28;20502;-71
2023/10/09 00:33:00;;;;;;;7.80;4.40;;;;;;;;;;5109175;28;20512;-71
2023/10/09 00:35:50;;;;;;;5.93;3.93;;;;;;;;;;5108452;28;21917;-71
2023/10/09 00:38:33;;;;;;;11.67;5.20;;;;;;;;;;5101246;28;20480;-71
2023/10/09 00:41:10;;;;;;;6.57;3.50;;;;;;;;;;5114615;28;21080;-71
2023/10/09 00:43:37;;;;;;;7.23;4.10;;;;;;;;;;5095520;28;20470;-71
2023/10/09 00:46:08;;;;;;;8.53;5.87;;;;;;;;;;5105922;28;20935;-71
2023/10/09 00:48:39;;;;;;;10.23;5.70;;;;;;;;;;5109779;28;20484;-71
2023/10/09 00:51:16;;;;;;;10.00;6.50;;;;;;;;;;5112436;28;20620;-71
2023/10/09 00:53:45;;;;;;;14.63;6.40;;;;;;;;;;5107551;28;20522;-71
2023/10/09 00:56:18;;;;;;;14.30;6.20;;;;;;;;;;5103878;28;20730;-71
2023/10/09 00:58:46;;;;;;;11.53;6.07;;;;;;;;;;5107143;28;20527;-70
2023/10/09 01:01:16;;;;;;;11.23;6.50;;;;;;;;;;5101825;28;20454;-70
2023/10/09 01:03:43;;;;;;;15.43;8.93;;;;;;;;;;5106960;28;21243;-70
2023/10/09 01:06:21;;;;;;;24.67;10.13;;;;;;;;;;5108784;28;20443;-71
2023/10/09 01:09:06;;;;;;;20.10;10.30;;;;;;;;;;5105759;28;20485;-71
2023/10/09 01:11:34;;;;;;;16.50;10.37;;;;;;;;;;5107453;28;20466;-70
2023/10/09 01:14:11;;;;;;;27.67;11.77;;;;;;;;;;5108798;28;20455;-70
2023/10/09 01:16:41;;;;;;;25.10;13.40;;;;;;;;;;5107372;28;20522;-71
2023/10/09 01:19:13;;;;;;;24.33;13.33;;;;;;;;;;5107037;28;20500;-71
2023/10/09 01:21:39;;;;;;;23.80;12.90;;;;;;;;;;5102324;28;20713;-71
2023/10/09 01:24:08;;;;;;;20.93;11.40;;;;;;;;;;5108307;28;20447;-70
2023/10/09 01:26:39;;;;;;;23.10;12.30;;;;;;;;;;5103195;28;20457;-70
2023/10/09 01:29:10;;;;;;;29.83;14.00;;;;;;;;;;5102492;28;20445;-70
2023/10/09 01:31:43;;;;;;;20.77;11.23;;;;;;;;;;5103589;28;20559;-70
2023/10/09 01:34:09;;;;;;;26.03;13.87;;;;;;;;;;5105360;28;20451;-70
2023/10/09 01:36:39;;;;;;;26.10;13.00;;;;;;;;;;5105641;28;20527;-70
2023/10/09 01:39:10;;;;;;;23.27;13.80;;;;;;;;;;5105130;28;21269;-70
2023/10/09 01:41:46;;;;;;;27.10;12.63;;;;;;;;;;5103836;28;20914;-70
2023/10/09 01:44:12;;;;;;;27.87;14.57;;;;;;;;;;5111943;28;20496;-70
2023/10/09 01:46:39;;;;;;;25.90;13.37;;;;;;;;;;5105764;28;20586;-70
2023/10/09 01:49:16;;;;;;;27.17;14.90;;;;;;;;;;5107460;28;20982;-70
2023/10/09 01:51:43;;;;;;;28.07;15.00;;;;;;;;;;5100969;28;20446;-70
2023/10/09 01:54:16;;;;;;;26.90;14.60;;;;;;;;;;5113566;28;20477;-70
2023/10/09 01:56:46;;;;;;;30.73;15.07;;;;;;;;;;5100142;28;20490;-70
2023/10/09 01:59:12;;;;;;;30.30;14.27;;;;;;;;;;5100110;28;20447;-69
2023/10/09 02:01:42;;;;;;;26.30;13.33;;;;;;;;;;5105249;28;20469;-69
2023/10/09 02:04:13;;;;;;;28.20;15.13;;;;;;;;;;5103014;28;20482;-69
2023/10/09 02:06:40;;;;;;;33.40;14.37;;;;;;;;;;5104825;28;20455;-68
2023/10/09 02:09:07;;;;;;;26.23;15.10;;;;;;;;;;5096805;28;20466;-68
2023/10/09 02:11:41;;;;;;;29.23;14.83;;;;;;;;;;5106731;28;20454;-68
2023/10/09 02:14:19;;;;;;;29.43;14.57;;;;;;;;;;5101692;28;20502;-69
2023/10/09 02:17:01;;;;;;;27.10;13.43;;;;;;;;;;5104310;28;20482;-68
2023/10/09 02:19:31;;;;;;;28.03;14.50;;;;;;;;;;5099681;28;20477;-69
2023/10/09 02:21:58;;;;;;;26.87;13.40;;;;;;;;;;5099823;28;20510;-69
2023/10/09 02:24:41;;;;;;;24.53;14.50;;;;;;;;;;5103942;28;20511;-68
2023/10/09 02:27:10;;;;;;;33.30;16.60;;;;;;;;;;5093863;28;20455;-69
2023/10/09 02:29:38;;;;;;;30.13;15.63;;;;;;;;;;5113420;28;21259;-68
2023/10/09 02:32:14;;;;;;;27.10;16.50;;;;;;;;;;5104237;28;20451;-68
2023/10/09 02:34:40;;;;;;;29.40;16.53;;;;;;;;;;5106804;28;21233;-68
2023/10/09 02:37:11;;;;;;;32.80;16.60;;;;;;;;;;5116205;28;20454;-68
2023/10/09 02:39:43;;;;;;;33.73;17.43;;;;;;;;;;5104781;28;20457;-68
2023/10/09 02:42:23;;;;;;;30.07;17.97;;;;;;;;;;5101141;28;20463;-67
2023/10/09 02:44:51;;;;;;;37.00;17.17;;;;;;;;;;5109237;28;20507;-68
2023/10/09 02:47:20;;;;;;;38.73;18.43;;;;;;;;;;5109069;28;20450;-69
2023/10/09 02:49:48;;;;;;;35.73;18.43;;;;;;;;;;5105685;28;20474;-69
2023/10/09 02:52:18;;;;;;;39.27;19.17;;;;;;;;;;5105602;28;20454;-69
2023/10/09 02:54:47;;;;;;;27.43;17.80;;;;;;;;;;5101429;28;20466;-68
2023/10/09 02:57:21;;;;;;;29.43;18.13;;;;;;;;;;5107804;28;20467;-69
2023/10/09 02:59:51;;;;;;;31.20;19.00;;;;;;;;;;5108654;28;20446;-69
2023/10/09 03:02:17;;;;;;;32.13;18.97;;;;;;;;;;5099015;28;20481;-69
2023/10/09 03:04:44;;;;;;;30.50;17.60;;;;;;;;;;5106875;28;20478;-69
2023/10/09 03:07:13;;;;;;;30.50;18.40;;;;;;;;;;5109053;28;20458;-69
2023/10/09 03:09:40;;;;;;;32.07;17.67;;;;;;;;;;5103052;28;20482;-69
2023/10/09 03:12:09;;;;;;;30.23;17.87;;;;;;;;;;5107799;28;20508;-69
2023/10/09 03:14:39;;;;;;;30.67;17.20;;;;;;;;;;5110655;28;20500;-69
2023/10/09 03:17:06;;;;;;;31.23;17.50;;;;;;;;;;5099732;28;20470;-69
2023/10/09 03:19:37;;;;;;;32.30;17.90;;;;;;;;;;5105412;28;20455;-69
2023/10/09 03:22:03;;;;;;;28.20;17.80;;;;;;;;;;5109930;28;20983;-69
2023/10/09 03:24:30;;;;;;;34.90;17.40;;;;;;;;;;5103115;28;21018;-69
2023/10/09 03:26:57;;;;;;;30.73;17.77;;;;;;;;;;5109208;28;20517;-69
2023/10/09 03:29:24;;;;;;;35.30;17.30;;;;;;;;;;5107000;28;20473;-69
2023/10/09 03:31:52;;;;;;;31.53;17.07;;;;;;;;;;5098926;28;20543;-69
2023/10/09 03:34:19;;;;;;;27.70;17.80;;;;;;;;;;5101044;28;20541;-69
2023/10/09 03:36:47;;;;;;;28.93;16.43;;;;;;;;;;5103606;28;20659;-69
2023/10/09 03:39:24;;;;;;;33.97;17.80;;;;;;;;;;5107903;28;20503;-68
2023/10/09 03:41:51;;;;;;;32.73;17.07;;;;;;;;;;5114704;28;20497;-69
2023/10/09 03:44:18;;;;;;;39.93;17.43;;;;;;;;;;5108826;28;20460;-69
2023/10/09 03:46:45;;;;;;;29.43;18.17;;;;;;;;;;5106540;28;20491;-68
2023/10/09 03:49:16;;;;;;;33.33;18.40;;;;;;;;;;5103210;28;20482;-68
2023/10/09 03:51:45;;;;;;;37.13;17.10;;;;;;;;;;5102639;28;20506;-70
2023/10/09 03:54:13;;;;;;;31.97;16.00;;;;;;;;;;5105308;28;20459;-69
2023/10/09 03:56:42;;;;;;;30.57;16.63;;;;;;;;;;5099322;28;20504;-69
2023/10/09 03:59:10;;;;;;;37.97;18.27;;;;;;;;;;5098984;28;20453;-69
2023/10/09 04:01:39;;;;;;;30.10;17.63;;;;;;;;;;5109165;28;20455;-70
2023/10/09 04:04:10;;;;;;;28.07;16.07;;;;;;;;;;5107122;28;20458;-69
2023/10/09 04:06:38;;;;;;;32.20;17.27;;;;;;;;;;5101548;28;20465;-69
2023/10/09 04:09:26;;;;;;;31.43;17.27;;;;;;;;;;5105899;28;20537;-69
2023/10/09 04:12:13;;;;;;;26.23;16.43;;;;;;;;;;5106162;28;20494;-69
2023/10/09 04:14:50;;;;;;;33.90;16.80;;;;;;;;;;5103292;28;20470;-69
2023/10/09 04:22:42;;;;;;;31.80;20.20;;;;;;;;;;5105176;27;20447;-69
2023/10/09 04:25:14;;;;;;;30.30;18.30;;;;;;;;;;5112217;28;20457;-70
2023/10/09 04:27:40;;;;;;;33.97;17.60;;;;;;;;;;5100049;28;20455;-69
2023/10/09 04:30:12;;;;;;;31.77;18.00;;;;;;;;;;5103932;28;20452;-69
2023/10/09 04:32:40;;;;;;;30.53;17.37;;;;;;;;;;5108134;28;20518;-70
2023/10/09 04:37:52;;;;;;;38.93;19.33;;;;;;;;;;5098661;28;20451;-69
2023/10/09 04:40:41;;;;;;;33.50;17.60;;;;;;;;;;5104193;28;20447;-69
2023/10/09 04:43:06;;;;;;;27.43;17.80;;;;;;;;;;5103430;28;20447;-69
2023/10/09 04:48:32;;;;;;;32.50;18.27;;;;;;;;;;5098856;28;20441;-69
2023/10/09 04:53:47;;;;;;;39.30;18.90;;;;;;;;;;5107880;28;20514;-69
2023/10/09 04:56:16;;;;;;;35.60;18.87;;;;;;;;;;5102230;28;20476;-68
2023/10/09 04:58:43;;;;;;;30.20;17.60;;;;;;;;;;5107624;28;20451;-69
2023/10/09 05:01:35;;;;;;;39.27;19.80;;;;;;;;;;5103254;28;20504;-69
2023/10/09 05:04:04;;;;;;;33.00;18.60;;;;;;;;;;5102928;28;20463;-68
2023/10/09 05:06:55;;;;;;;34.20;19.87;;;;;;;;;;5101715;28;20463;-69
2023/10/09 05:09:23;;;;;;;33.10;19.83;;;;;;;;;;5104928;28;20462;-69
2023/10/09 05:12:15;;;;;;;37.57;19.10;;;;;;;;;;5105010;28;20482;-69
2023/10/09 05:14:45;;;;;;;29.63;19.70;;;;;;;;;;5106730;28;20976;-69
2023/10/09 05:17:16;;;;;;;36.43;21.47;;;;;;;;;;5105776;28;20549;-69
2023/10/09 05:19:42;;;;;;;40.03;20.70;;;;;;;;;;5104931;28;20541;-70
2023/10/09 05:22:29;;;;;;;26.93;17.63;;;;;;;;;;5105299;28;20561;-69
2023/10/09 05:24:56;;;;;;;37.33;18.57;;;;;;;;;;5102099;28;20213;-69
2023/10/09 05:27:45;;;;;;;29.60;18.20;;;;;;;;;;5097865;28;20492;-69
2023/10/09 05:30:24;;;;;;;34.43;21.13;;;;;;;;;;5098973;28;20518;-69
2023/10/09 05:32:54;;;;;;;39.20;20.03;;;;;;;;;;5100923;28;20486;-69
2023/10/09 05:35:29;;;;;;;29.97;18.40;;;;;;;;;;5101186;28;20455;-69
2023/10/09 05:38:01;;;;;;;34.47;19.43;;;;;;;;;;5100201;28;20458;-69
2023/10/09 05:40:31;;;;;;;36.93;20.13;;;;;;;;;;5099056;28;20451;-70
2023/10/09 05:43:02;;;;;;;35.43;20.00;;;;;;;;;;5098715;28;20455;-69
2023/10/09 06:04:49;;;;;;;31.90;20.90;;;;;;;;;;5097699;28;20431;-69
2023/10/09 06:07:23;;;;;;;33.57;21.00;;;;;;;;;;5099538;28;20462;-68
2023/10/09 06:09:52;;;;;;;29.90;20.53;;;;;;;;;;5095161;28;20459;-69
2023/10/09 06:18:32;;;;;;;47.50;20.73;;;;;;;;;;5140590;27;20437;-68
2023/10/09 06:21:19;;;;;;;37.60;19.30;;;;;;;;;;5147385;27;20498;-68
2023/10/09 06:26:26;;;;;;;33.80;20.47;;;;;;;;;;5114413;27;20520;-69
2023/10/09 06:29:15;;;;;;;36.90;20.07;;;;;;;;;;5119311;28;20532;-68
2023/10/09 06:34:35;;;;;;;33.63;21.40;;;;;;;;;;5100156;28;21677;-69
2023/10/09 06:37:17;;;;;;;33.83;20.40;;;;;;;;;;5117452;28;20536;-67
2023/10/09 06:40:23;;;;;;;35.37;20.20;;;;;;;;;;5129140;28;20449;-68
2023/10/09 06:42:43;;;;;;;28.37;17.90;;;;;;;;;;5118159;28;20502;-68
2023/10/09 06:45:15;;;;;;;38.67;20.90;;;;;;;;;;5114620;28;20505;-66
2023/10/09 06:47:53;;;;;;;33.47;19.33;;;;;;;;;;5114970;28;20885;-68
2023/10/09 06:50:25;;;;;;;31.87;19.57;;;;;;;;;;5121563;28;20441;-67
2023/10/09 06:53:05;;;;;;;39.10;20.87;;;;;;;;;;5120759;28;20860;-67
2023/10/09 06:55:37;;;;;;;29.63;20.10;;;;;;;;;;5125390;28;20554;-67
2023/10/09 06:58:09;;;;;;;33.10;19.97;;;;;;;;;;5118392;28;20480;-67
2023/10/09 07:03:36;;;;;;;33.13;20.03;;;;;;;;;;5116245;27;20511;-66
2023/10/09 07:06:09;;;;;;;32.30;20.20;;;;;;;;;;5115632;28;20535;-67
2023/10/09 07:08:37;;;;;;;28.10;18.40;;;;;;;;;;5123293;28;20479;-67
2023/10/09 07:13:52;;;;;;;32.30;19.17;;;;;;;;;;5117525;28;20498;-66
2023/10/09 07:16:28;;;;;;;32.07;19.57;;;;;;;;;;5114081;28;20463;-66
2023/10/09 07:19:09;;;;;;;32.40;20.07;;;;;;;;;;5118706;28;20465;-67
2023/10/09 07:21:35;;;;;;;28.50;19.27;;;;;;;;;;5122066;28;20517;-66
2023/10/09 07:24:14;;;;;;;30.87;21.33;;;;;;;;;;5121888;28;20478;-66
2023/10/09 07:26:47;;;;;;;32.33;20.60;;;;;;;;;;5101832;28;20462;-67
2023/10/09 07:29:21;;;;;;;42.50;22.20;;;;;;;;;;5116665;28;20442;-67
2023/10/09 07:31:57;;;;;;;34.10;20.50;;;;;;;;;;5109016;28;20507;-68
2023/10/09 07:34:52;;;;;;;34.07;21.90;;;;;;;;;;5114358;28;20521;-67
2023/10/09 07:37:19;;;;;;;29.03;20.33;;;;;;;;;;5118914;28;20545;-68
2023/10/09 07:39:56;;;;;;;29.70;19.43;;;;;;;;;;5113641;28;20869;-67
2023/10/09 07:42:33;;;;;;;34.10;20.27;;;;;;;;;;5109868;28;20463;-67
2023/10/09 07:45:11;;;;;;;31.73;20.33;;;;;;;;;;5106093;28;20445;-67
2023/10/09 07:48:00;;;;;;;29.97;20.97;;;;;;;;;;5107975;28;20451;-67
2023/10/09 07:50:38;;;;;;;29.17;19.10;;;;;;;;;;5112271;28;20461;-67
2023/10/09 07:53:17;;;;;;;29.10;19.80;;;;;;;;;;5104872;28;20526;-67
2023/10/09 07:55:53;;;;;;;28.10;18.73;;;;;;;;;;5113084;28;20470;-67
2023/10/09 07:58:24;;;;;;;29.63;19.27;;;;;;;;;;5100995;28;20541;-67
2023/10/09 08:03:33;;;;;;;33.50;18.50;;;;;;;;;;5107084;27;20461;-67
2023/10/09 08:06:37;;;;;;;26.27;18.10;;;;;;;;;;5110450;28;20462;-67
2023/10/09 08:11:59;;;;;;;27.93;19.20;;;;;;;;;;5113111;28;21040;-67
2023/10/09 08:17:11;;;;;;;33.00;18.50;;;;;;;;;;5113893;27;20817;-67
2023/10/09 08:19:51;;;;;;;27.07;18.70;;;;;;;;;;5111555;28;20446;-67
2023/10/09 08:25:02;;;;;;;27.73;17.83;;;;;;;;;;5097531;28;20463;-65
2023/10/09 08:27:53;;;;;;;27.33;20.00;;;;;;;;;;5097943;28;20462;-67
2023/10/09 08:30:40;;;;;;;28.60;18.40;;;;;;;;;;5093892;28;20514;-64
2023/10/09 08:33:40;;;;;;;30.70;17.20;;;;;;;;;;5106290;28;20959;-66
2023/10/09 08:36:01;;;;;;;28.40;18.83;;;;;;;;;;5111638;28;20486;-66
2023/10/09 08:38:33;;;;;;;24.20;17.23;;;;;;;;;;5105161;28;20514;-66
2023/10/09 08:41:15;;;;;;;30.43;19.53;;;;;;;;;;5102504;28;20875;-65
2023/10/09 08:43:43;;;;;;;27.20;18.20;;;;;;;;;;5101780;28;20459;-66
2023/10/09 08:46:13;;;;;;;31.37;19.27;;;;;;;;;;5103221;28;20466;-65
2023/10/09 08:48:39;;;;;;;23.10;17.47;;;;;;;;;;5104103;28;20454;-66
2023/10/09 08:51:06;;;;;;;27.17;18.53;;;;;;;;;;5101594;28;20474;-67
2023/10/09 08:53:34;;;;;;;26.73;17.03;;;;;;;;;;5104165;28;21091;-65
2023/10/09 08:56:03;;;;;;;28.07;17.57;;;;;;;;;;5110666;28;20521;-65
2023/10/09 08:58:34;;;;;;;27.20;18.10;;;;;;;;;;5103014;28;20529;-66
2023/10/09 09:01:01;;;;;;;23.30;17.57;;;;;;;;;;5101441;28;20458;-66
2023/10/09 09:03:27;;;;;;;26.03;18.43;;;;;;;;;;5099934;28;20471;-66
2023/10/09 09:06:00;;;;;;;23.27;16.70;;;;;;;;;;5105518;28;20486;-67
2023/10/09 09:08:28;;;;;;;32.60;18.10;;;;;;;;;;5112658;28;20536;-66
2023/10/09 09:11:11;;;;;;;24.10;17.43;;;;;;;;;;5107910;28;20442;-66
2023/10/09 09:13:37;;;;;;;20.60;16.03;;;;;;;;;;5107365;28;20494;-66
2023/10/09 09:16:04;;;;;;;30.57;17.53;;;;;;;;;;5101854;28;20979;-66
2023/10/09 09:18:39;;;;;;;24.47;17.57;;;;;;;;;;5099756;28;20990;-66
2023/10/09 09:21:21;;;;;;;25.77;16.80;;;;;;;;;;5108305;28;20508;-66
2023/10/09 09:23:54;;;;;;;29.70;16.10;;;;;;;;;;5106389;28;20487;-65
2023/10/09 09:26:36;;;;;;;27.00;16.70;;;;;;;;;;5093462;28;20545;-67
2023/10/09 09:29:05;;;;;;;30.70;18.87;;;;;;;;;;5095072;28;20462;-67
2023/10/09 09:31:37;;;;;;;22.70;17.50;;;;;;;;;;5106957;28;20447;-66
2023/10/09 09:34:08;;;;;;;24.10;17.77;;;;;;;;;;5109685;28;20451;-67
2023/10/09 09:36:35;;;;;;;27.03;17.90;;;;;;;;;;5106291;28;20595;-65
2023/10/09 09:39:03;;;;;;;30.07;18.13;;;;;;;;;;5098261;28;20492;-65
2023/10/09 09:41:34;;;;;;;27.37;18.30;;;;;;;;;;5111223;28;20480;-65
2023/10/09 09:44:00;;;;;;;26.90;17.03;;;;;;;;;;5106135;28;21195;-66
2023/10/09 09:46:33;;;;;;;24.30;16.80;;;;;;;;;;5110720;28;20520;-66
2023/10/09 09:49:01;;;;;;;24.77;17.57;;;;;;;;;;5090733;28;21145;-67
2023/10/09 09:51:30;;;;;;;31.90;17.97;;;;;;;;;;5111618;28;20504;-65
2023/10/09 09:53:57;;;;;;;34.17;18.63;;;;;;;;;;5111255;28;20484;-66
2023/10/09 09:56:25;;;;;;;26.90;17.60;;;;;;;;;;5098837;28;20455;-66
2023/10/09 09:58:56;;;;;;;26.97;18.83;;;;;;;;;;5108993;28;20455;-67
2023/10/09 10:01:25;;;;;;;24.20;17.50;;;;;;;;;;5104123;28;20447;-66
2023/10/09 10:03:56;;;;;;;21.57;17.83;;;;;;;;;;5110633;28;20446;-66
2023/10/09 10:06:26;;;;;;;24.80;18.30;;;;;;;;;;5119566;28;20503;-66
2023/10/09 10:08:52;;;;;;;30.30;18.23;;;;;;;;;;5109338;28;20562;-66
2023/10/09 10:11:40;;;;;;;24.10;18.10;;;;;;;;;;5105295;28;20452;-66
2023/10/09 10:14:11;;;;;;;25.90;16.90;;;;;;;;;;5099858;28;20513;-66
2023/10/09 10:17:00;;;;;;;23.70;18.03;;;;;;;;;;5096483;28;20821;-66
2023/10/09 10:19:47;;;;;;;23.27;15.83;;;;;;;;;;5105644;28;20454;-66
2023/10/09 10:22:27;;;;;;;24.43;16.27;;;;;;;;;;5103053;28;20517;-66
2023/10/09 10:24:54;;;;;;;30.43;18.57;;;;;;;;;;5098922;28;20454;-66
2023/10/09 10:27:26;;;;;;;28.00;16.63;;;;;;;;;;5111541;28;20462;-66
2023/10/09 10:30:10;;;;;;;28.97;18.70;;;;;;;;;;5107282;28;20450;-66
2023/10/09 10:32:52;;;;;;;29.73;17.33;;;;;;;;;;5091521;28;20459;-66
2023/10/09 10:35:20;;;;;;;30.30;17.67;;;;;;;;;;5096768;28;20486;-67
2023/10/09 10:37:50;;;;;;;25.83;18.03;;;;;;;;;;5096666;28;20747;-67
2023/10/09 10:40:38;;;;;;;22.90;16.43;;;;;;;;;;5126961;28;20547;-68
2023/10/09 10:43:13;;;;;;;23.47;16.20;;;;;;;;;;5117694;28;20462;-67
2023/10/09 10:45:44;;;;;;;21.47;16.50;;;;;;;;;;5130724;28;20525;-67
2023/10/09 10:48:22;;;;;;;28.93;17.97;;;;;;;;;;5113607;28;20526;-67
2023/10/09 10:50:57;;;;;;;26.93;19.10;;;;;;;;;;5120424;28;20453;-67
2023/10/09 10:53:27;;;;;;;23.87;17.20;;;;;;;;;;5129536;28;20460;-67
2023/10/09 10:56:17;;;;;;;24.70;17.73;;;;;;;;;;5119633;28;20516;-67
2023/10/09 10:58:54;;;;;;;26.47;17.10;;;;;;;;;;5131216;28;20454;-67
2023/10/09 11:01:22;;;;;;;26.47;18.33;;;;;;;;;;5128398;27;20454;-67
2023/10/09 11:03:55;;;;;;;30.27;17.90;;;;;;;;;;5128998;27;20455;-67
2023/10/09 11:06:36;;;;;;;30.50;21.80;;;;;;;;;;5119650;27;20451;-67
2023/10/09 11:09:09;;;;;;;26.87;20.40;;;;;;;;;;5129287;27;20461;-68
2023/10/09 11:11:41;;;;;;;32.00;21.83;;;;;;;;;;5129458;27;20458;-68
2023/10/09 11:14:14;;;;;;;35.27;22.97;;;;;;;;;;5133815;27;21107;-66
2023/10/09 11:16:43;;;;;;;31.33;23.73;;;;;;;;;;5123971;27;20472;-66
2023/10/09 11:19:22;;;;;;;34.10;24.00;;;;;;;;;;5131006;27;20552;-65
2023/10/09 11:21:58;;;;;;;38.60;26.07;;;;;;;;;;5126023;27;20453;-67
2023/10/09 11:24:27;;;;;;;31.03;25.00;;;;;;;;;;5121467;27;20467;-65
2023/10/09 11:26:57;;;;;;;31.37;24.57;;;;;;;;;;5120668;27;20465;-66
2023/10/09 11:29:23;;;;;;;33.93;25.10;;;;;;;;;;5127085;27;20465;-65
2023/10/09 11:32:04;;;;;;;32.53;24.43;;;;;;;;;;5126857;27;20444;-66
2023/10/09 11:34:31;;;;;;;30.30;23.43;;;;;;;;;;5127014;27;20461;-67
2023/10/09 11:36:59;;;;;;;34.83;24.40;;;;;;;;;;5121630;27;20773;-65
2023/10/09 11:39:34;;;;;;;30.33;24.43;;;;;;;;;;5134863;27;20480;-65
2023/10/09 11:42:05;;;;;;;32.90;26.60;;;;;;;;;;5134547;27;20520;-66
2023/10/09 11:44:41;;;;;;;34.13;25.90;;;;;;;;;;5125246;27;20445;-66
2023/10/09 11:47:32;;;;;;;37.97;28.40;;;;;;;;;;5124147;27;20491;-67
2023/10/09 11:52:56;;;;;;;38.47;27.93;;;;;;;;;;5114920;27;20439;-67
2023/10/09 11:55:25;;;;;;;41.00;28.00;;;;;;;;;;5122521;27;20947;-67
2023/10/09 11:57:51;;;;;;;35.37;26.37;;;;;;;;;;5123762;27;20448;-67
2023/10/09 12:00:27;;;;;;;37.23;26.60;;;;;;;;;;5126244;27;20458;-66
2023/10/09 12:02:54;;;;;;;39.20;27.60;;;;;;;;;;5127234;27;20826;-67
2023/10/09 12:05:21;;;;;;;32.67;27.13;;;;;;;;;;5125420;27;20465;-66
2023/10/09 12:07:49;;;;;;;35.67;26.50;;;;;;;;;;5130606;27;20476;-66
2023/10/09 12:10:24;;;;;;;36.13;28.40;;;;;;;;;;5131683;27;20478;-66
2023/10/09 12:12:52;;;;;;;38.73;29.43;;;;;;;;;;5118032;27;20497;-65
2023/10/09 12:15:19;;;;;;;36.43;29.20;;;;;;;;;;5124574;27;20544;-67
2023/10/09 12:17:47;;;;;;;38.57;28.27;;;;;;;;;;5123321;27;20489;-66
2023/10/09 12:20:29;;;;;;;33.97;27.50;;;;;;;;;;5132402;27;20457;-67
2023/10/09 12:22:57;;;;;;;41.77;28.77;;;;;;;;;;5118199;27;20452;-67
2023/10/09 12:25:24;;;;;;;35.80;25.70;;;;;;;;;;5134208;27;20465;-67
2023/10/09 12:27:54;;;;;;;35.70;26.43;;;;;;;;;;5114797;27;20523;-66
2023/10/09 12:30:26;;;;;;;33.07;23.57;;;;;;;;;;5119472;27;20948;-66
2023/10/09 12:32:53;;;;;;;33.37;23.33;;;;;;;;;;5118888;27;20471;-66
2023/10/09 12:35:19;;;;;;;31.00;25.30;;;;;;;;;;5125218;27;20514;-66
2023/10/09 12:37:46;;;;;;;34.80;25.90;;;;;;;;;;5126473;27;20461;-63
2023/10/09 12:40:12;;;;;;;31.00;24.00;;;;;;;;;;5120079;27;20442;-65
2023/10/09 12:42:40;;;;;;;38.40;25.90;;;;;;;;;;5118059;28;20813;-65
2023/10/09 12:45:09;;;;;;;33.73;26.00;;;;;;;;;;5120401;27;20530;-67
2023/10/09 12:47:37;;;;;;;31.27;24.20;;;;;;;;;;5119338;27;20453;-68
2023/10/09 12:50:09;;;;;;;31.97;26.50;;;;;;;;;;5117579;28;20457;-68
2023/10/09 12:52:37;;;;;;;30.40;24.60;;;;;;;;;;5121504;27;20471;-69
2023/10/09 12:55:06;;;;;;;32.27;25.10;;;;;;;;;;5118452;28;20449;-69
2023/10/09 12:57:33;;;;;;;36.53;24.60;;;;;;;;;;5122960;27;20470;-68
2023/10/09 12:59:59;;;;;;;32.57;24.30;;;;;;;;;;5118238;28;20474;-67
2023/10/09 13:02:30;;;;;;;30.30;23.37;;;;;;;;;;5121006;27;20473;-69
2023/10/09 13:04:56;;;;;;;27.10;22.80;;;;;;;;;;5116674;27;20484;-70
2023/10/09 13:07:23;;;;;;;32.00;25.37;;;;;;;;;;5117242;28;20455;-70
2023/10/09 13:10:08;;;;;;;33.10;24.60;;;;;;;;;;5114478;28;20478;-67
2023/10/09 13:12:38;;;;;;;34.07;27.27;;;;;;;;;;5119439;27;20494;-67
2023/10/09 13:15:08;;;;;;;33.37;25.70;;;;;;;;;;5122715;27;20516;-69
2023/10/09 13:17:36;;;;;;;35.70;25.03;;;;;;;;;;5118193;28;20608;-65
2023/10/09 13:20:04;;;;;;;38.50;24.37;;;;;;;;;;5116434;27;20981;-69
2023/10/09 13:22:30;;;;;;;36.40;24.80;;;;;;;;;;5116690;27;20449;-69
2023/10/09 13:25:03;;;;;;;34.67;24.80;;;;;;;;;;5120975;27;20450;-68
2023/10/09 13:27:34;;;;;;;31.93;24.30;;;;;;;;;;5117360;27;20453;-68
2023/10/09 13:30:05;;;;;;;38.67;26.90;;;;;;;;;;5119910;27;20446;-67
2023/10/09 13:32:33;;;;;;;32.60;24.67;;;;;;;;;;5121299;27;20484;-67
2023/10/09 13:35:03;;;;;;;33.77;25.60;;;;;;;;;;5121900;27;20488;-70
2023/10/09 13:37:31;;;;;;;32.43;24.50;;;;;;;;;;5126260;27;20493;-70
2023/10/09 13:39:59;;;;;;;32.77;24.17;;;;;;;;;;5129726;27;20454;-70
2023/10/09 13:42:25;;;;;;;32.80;24.23;;;;;;;;;;5115142;27;20522;-68
2023/10/09 13:44:53;;;;;;;33.03;25.13;;;;;;;;;;5122193;27;20459;-70
2023/10/09 13:47:20;;;;;;;31.80;22.90;;;;;;;;;;5123007;27;20598;-69
2023/10/09 13:49:50;;;;;;;34.57;24.27;;;;;;;;;;5111992;27;20455;-70
2023/10/09 13:52:19;;;;;;;38.90;24.03;;;;;;;;;;5128460;27;20449;-70
2023/10/09 13:54:48;;;;;;;30.73;23.57;;;;;;;;;;5122578;27;20489;-70
2023/10/09 13:57:15;;;;;;;37.37;23.93;;;;;;;;;;5128054;27;20502;-70
2023/10/09 13:59:48;;;;;;;35.23;24.90;;;;;;;;;;5120484;27;20466;-68
2023/10/09 14:02:18;;;;;;;37.43;23.57;;;;;;;;;;5113594;27;20514;-70
2023/10/09 14:04:44;;;;;;;34.47;24.63;;;;;;;;;;5116863;28;20454;-70
2023/10/09 14:07:12;;;;;;;30.60;22.50;;;;;;;;;;5113612;28;20458;-69
2023/10/09 14:09:53;;;;;;;28.90;23.43;;;;;;;;;;5126337;27;20465;-69
2023/10/09 14:12:21;;;;;;;31.27;22.33;;;;;;;;;;5114264;28;20488;-70
2023/10/09 14:14:48;;;;;;;30.00;21.57;;;;;;;;;;5124330;28;20484;-70
2023/10/09 14:17:19;;;;;;;30.50;21.73;;;;;;;;;;5125763;28;20507;-69
2023/10/09 14:19:47;;;;;;;29.77;21.07;;;;;;;;;;5127376;28;20718;-70
2023/10/09 14:22:15;;;;;;;31.07;23.73;;;;;;;;;;5126702;28;20465;-69
2023/10/09 14:24:44;;;;;;;41.80;23.50;;;;;;;;;;5129811;28;20904;-70
2023/10/09 14:27:17;;;;;;;31.30;22.77;;;;;;;;;;5120140;28;20831;-70
2023/10/09 14:29:44;;;;;;;34.43;23.77;;;;;;;;;;5116892;28;20450;-70
2023/10/09 14:32:13;;;;;;;38.73;21.73;;;;;;;;;;5118064;28;20476;-68
2023/10/09 14:34:42;;;;;;;33.37;22.57;;;;;;;;;;5112276;28;20529;-70
2023/10/09 14:37:11;;;;;;;34.30;22.50;;;;;;;;;;5127673;27;21020;-68
2023/10/09 14:39:38;;;;;;;28.97;20.40;;;;;;;;;;5120396;27;20480;-69
2023/10/09 14:42:09;;;;;;;32.23;21.47;;;;;;;;;;5128276;27;20889;-70
2023/10/09 14:44:37;;;;;;;35.53;21.20;;;;;;;;;;5130207;27;20501;-70
2023/10/09 14:47:05;;;;;;;29.83;21.20;;;;;;;;;;5125732;27;20452;-69
2023/10/09 14:49:34;;;;;;;28.00;20.73;;;;;;;;;;5121887;27;20523;-69
2023/10/09 14:52:01;;;;;;;25.53;20.07;;;;;;;;;;5136517;27;20449;-69
2023/10/09 14:54:27;;;;;;;24.87;19.60;;;;;;;;;;5127550;27;20446;-69
2023/10/09 14:56:55;;;;;;;27.40;20.40;;;;;;;;;;5128845;27;20595;-69
2023/10/09 14:59:23;;;;;;;24.37;18.40;;;;;;;;;;5129932;27;20482;-68
2023/10/09 15:01:50;;;;;;;25.63;19.20;;;;;;;;;;5118651;27;20465;-70
2023/10/09 15:04:17;;;;;;;26.00;18.20;;;;;;;;;;5127259;27;20461;-70
2023/10/09 15:06:43;;;;;;;22.63;17.63;;;;;;;;;;5122391;27;20450;-70
2023/10/09 15:09:21;;;;;;;26.97;16.90;;;;;;;;;;5121764;27;20793;-69
2023/10/09 15:11:48;;;;;;;22.73;16.47;;;;;;;;;;5122170;27;20449;-68
2023/10/09 15:14:14;;;;;;;21.70;16.83;;;;;;;;;;5125955;27;21175;-69
2023/10/09 15:16:42;;;;;;;23.20;16.40;;;;;;;;;;5128745;27;20504;-67
2023/10/09 15:19:10;;;;;;;22.20;14.87;;;;;;;;;;5133257;27;20758;-70
2023/10/09 15:21:42;;;;;;;24.10;15.53;;;;;;;;;;5126418;27;20450;-70
2023/10/09 15:24:10;;;;;;;22.70;16.13;;;;;;;;;;5126666;27;20782;-69
2023/10/09 15:26:36;;;;;;;23.60;14.67;;;;;;;;;;5125719;27;20449;-70
2023/10/09 15:29:06;;;;;;;19.30;14.30;;;;;;;;;;5124616;27;20469;-69
2023/10/09 15:31:32;;;;;;;19.97;14.40;;;;;;;;;;5131079;27;20483;-68
2023/10/09 15:34:01;;;;;;;22.33;13.20;;;;;;;;;;5124347;27;20450;-69
2023/10/09 15:36:32;;;;;;;18.17;14.30;;;;;;;;;;5128703;27;20512;-69
2023/10/09 15:38:59;;;;;;;17.17;12.70;;;;;;;;;;5131182;27;20454;-70
2023/10/09 15:41:29;;;;;;;19.97;13.00;;;;;;;;;;5125446;27;20460;-68
2023/10/09 15:43:57;;;;;;;21.93;14.20;;;;;;;;;;5123288;27;20458;-70
2023/10/09 15:46:23;;;;;;;19.90;13.73;;;;;;;;;;5120059;27;20445;-69
2023/10/09 15:48:51;;;;;;;21.50;14.97;;;;;;;;;;5123176;27;20480;-70
2023/10/09 15:51:18;;;;;;;18.10;13.30;;;;;;;;;;5128585;27;20454;-70